Time;durP1;ratioP1;P1;durP2;ratioP2;P2;SDS_P1;SDS_P2;PMS_P1;PMS_P2;Temp;Humidity;BMP_temperature;BMP_pressure;BME280_temperature;BME280_humidity;BME280_pressure;Samples;Min_cycle;Max_cycle;Signal;HPM_P1;HPM_P2
2023/04/10 00:01:06;;;;;;;51.03;35.42;;;7.60;99.90;;;;;;5033890;28;20137;-85
2023/04/10 00:03:32;;;;;;;50.75;35.35;;;7.70;99.90;;;;;;5033522;28;20544;-85
2023/04/10 00:05:58;;;;;;;47.90;32.78;;;7.60;99.90;;;;;;5034827;28;20045;-85
2023/04/10 00:08:24;;;;;;;50.53;34.22;;;7.60;99.90;;;;;;5017293;28;20401;-85
2023/04/10 00:10:50;;;;;;;50.60;35.85;;;7.50;99.90;;;;;;5033558;28;20081;-85
2023/04/10 00:13:16;;;;;;;48.83;33.15;;;7.50;99.90;;;;;;5001043;28;20103;-84
2023/04/10 00:15:42;;;;;;;51.95;36.38;;;7.50;99.90;;;;;;5017007;28;20041;-84
2023/04/10 00:18:08;;;;;;;48.97;34.20;;;7.50;99.90;;;;;;5033187;28;20048;-84
2023/04/10 00:20:34;;;;;;;50.45;35.50;;;7.50;99.90;;;;;;5017083;28;20042;-86
2023/04/10 00:23:00;;;;;;;50.55;37.25;;;7.50;99.90;;;;;;5016951;28;20104;-84
2023/04/10 00:25:25;;;;;;;52.72;36.97;;;7.40;99.90;;;;;;5016687;28;20043;-84
2023/04/10 00:27:53;;;;;;;53.33;36.97;;;7.30;99.90;;;;;;5033045;28;20058;-84
2023/04/10 00:30:19;;;;;;;51.33;36.60;;;7.30;99.90;;;;;;5032968;28;20442;-84
2023/04/10 00:32:45;;;;;;;53.55;39.10;;;7.40;99.90;;;;;;5033273;28;20045;-84
2023/04/10 00:35:11;;;;;;;57.40;39.17;;;7.30;99.90;;;;;;5033235;28;20060;-83
2023/04/10 00:37:37;;;;;;;54.90;38.67;;;7.30;99.90;;;;;;5032568;28;20212;-84
2023/04/10 00:40:05;;;;;;;53.13;39.63;;;7.20;99.90;;;;;;5016677;28;20094;-84
2023/04/10 00:42:31;;;;;;;55.53;38.95;;;7.30;99.90;;;;;;5033164;28;20052;-83
2023/04/10 00:44:57;;;;;;;54.38;39.47;;;7.20;99.90;;;;;;5032948;28;20092;-83
2023/04/10 00:47:24;;;;;;;55.20;38.80;;;7.20;99.90;;;;;;5032435;28;20045;-84
2023/04/10 00:49:50;;;;;;;53.97;39.22;;;7.20;99.90;;;;;;5016567;28;20053;-85
2023/04/10 00:52:16;;;;;;;54.42;39.75;;;7.20;99.90;;;;;;5016146;28;20055;-84
2023/04/10 00:54:42;;;;;;;56.33;38.95;;;7.20;99.90;;;;;;5032819;28;20515;-85
2023/04/10 00:57:07;;;;;;;57.92;40.30;;;7.20;99.90;;;;;;5016358;28;20042;-85
2023/04/10 00:59:34;;;;;;;56.30;39.97;;;7.20;99.90;;;;;;5032829;28;20055;-85
2023/04/10 01:02:00;;;;;;;57.47;40.95;;;7.20;99.90;;;;;;5032581;28;20049;-85
2023/04/10 01:04:28;;;;;;;55.40;40.03;;;7.20;99.90;;;;;;5032516;28;20115;-85
2023/04/10 01:06:59;;;;;;;56.20;40.10;;;7.20;99.90;;;;;;5032710;28;20129;-85
2023/04/10 01:09:47;;;;;;;59.08;41.45;;;7.20;99.90;;;;;;5032781;28;20054;-85
2023/04/10 01:12:22;;;;;;;57.13;39.35;;;7.20;99.90;;;;;;5032710;28;20057;-85
2023/04/10 01:15:09;;;;;;;58.05;40.28;;;7.20;99.90;;;;;;5016212;28;20519;-84
2023/04/10 01:17:56;;;;;;;56.13;40.65;;;7.20;99.90;;;;;;5032326;28;20084;-84
2023/04/10 01:20:28;;;;;;;57.75;39.70;;;7.20;99.90;;;;;;5032575;28;20044;-84
2023/04/10 01:23:32;;;;;;;57.42;40.60;;;7.10;99.90;;;;;;5032506;28;20049;-84
2023/04/10 01:26:05;;;;;;;56.53;40.63;;;7.10;99.90;;;;;;5032538;28;20544;-84
2023/04/10 01:28:55;;;;;;;57.38;40.60;;;7.10;99.90;;;;;;5032590;28;20449;-84
2023/04/10 01:31:46;;;;;;;;;;;7.10;99.90;;;;;;5016917;28;20049;-85
2023/04/10 01:34:19;;;;;;;57.15;39.28;;;7.00;99.90;;;;;;5032070;28;19925;-85
2023/04/10 01:36:59;;;;;;;58.17;41.47;;;7.00;99.90;;;;;;5015859;28;20043;-85
2023/04/10 01:39:27;;;;;;;56.78;40.17;;;7.00;99.90;;;;;;5032117;28;20054;-85
2023/04/10 01:41:55;;;;;;;56.63;41.53;;;6.90;99.90;;;;;;5032399;28;20508;-85
2023/04/10 01:44:26;;;;;;;56.70;41.08;;;6.90;99.90;;;;;;5031781;28;20139;-85
2023/04/10 01:46:55;;;;;;;53.43;34.00;;;6.90;99.90;;;;;;5015302;28;20037;-85
2023/04/10 01:49:22;;;;;;;56.75;39.83;;;6.90;99.90;;;;;;5015763;28;20055;-85
2023/04/10 01:51:50;;;;;;;57.72;40.63;;;6.90;99.90;;;;;;5032153;28;20049;-85
2023/04/10 01:54:16;;;;;;;55.28;38.05;;;6.90;99.90;;;;;;5032210;28;20486;-86
2023/04/10 01:56:43;;;;;;;55.83;40.38;;;6.90;99.90;;;;;;5032116;28;20485;-85
2023/04/10 01:59:08;;;;;;;52.60;38.67;;;6.90;99.90;;;;;;5032005;28;20085;-86
2023/04/10 02:01:34;;;;;;;54.95;37.55;;;6.90;99.90;;;;;;5015530;28;20104;-87
2023/04/10 02:04:01;;;;;;;53.90;37.33;;;6.80;99.90;;;;;;5033007;28;20409;-86
2023/04/10 02:07:06;;;;;;;58.47;38.25;;;6.90;99.90;;;;;;5035995;28;20061;-85
2023/04/10 02:10:14;;;;;;;55.80;35.38;;;6.90;99.90;;;;;;4979141;28;20050;-85
2023/04/10 02:12:52;;;;;;;54.97;36.95;;;6.80;99.90;;;;;;5031838;28;20050;-86
2023/04/10 02:15:25;;;;;;;54.35;36.22;;;6.80;99.90;;;;;;5035600;28;20468;-85
2023/04/10 02:17:52;;;;;;;52.60;34.92;;;6.80;99.90;;;;;;5035716;28;20132;-86
2023/04/10 02:20:18;;;;;;;53.70;36.85;;;6.80;99.90;;;;;;5035817;28;20103;-85
2023/04/10 02:22:44;;;;;;;48.70;33.42;;;6.80;99.90;;;;;;5035625;28;20045;-85
2023/04/10 02:25:10;;;;;;;52.85;36.40;;;6.70;99.90;;;;;;5035699;28;20049;-85
2023/04/10 02:27:37;;;;;;;53.42;31.45;;;6.70;99.90;;;;;;5035597;28;20103;-86
2023/04/10 02:30:04;;;;;;;53.78;36.22;;;6.70;99.90;;;;;;5035321;28;20563;-85
2023/04/10 02:32:32;;;;;;;54.90;37.05;;;6.70;99.90;;;;;;5035359;28;20100;-85
2023/04/10 02:34:58;;;;;;;53.47;36.53;;;6.70;99.90;;;;;;5035402;28;20053;-85
2023/04/10 02:37:24;;;;;;;50.47;33.90;;;6.70;99.90;;;;;;5018937;28;20096;-86
2023/04/10 02:39:50;;;;;;;51.83;31.88;;;6.60;99.90;;;;;;5035479;28;20115;-85
2023/04/10 02:42:16;;;;;;;50.15;35.05;;;6.70;99.90;;;;;;5001944;28;20049;-84
2023/04/10 02:44:42;;;;;;;51.80;35.83;;;6.70;99.90;;;;;;5018809;28;20045;-85
2023/04/10 02:47:07;;;;;;;48.20;32.05;;;6.70;99.90;;;;;;5018602;28;20056;-86
2023/04/10 02:49:34;;;;;;;47.92;32.95;;;6.70;99.90;;;;;;5036331;28;20049;-86
2023/04/10 02:52:00;;;;;;;49.63;32.45;;;6.80;99.90;;;;;;5035135;28;20489;-86
2023/04/10 02:54:29;;;;;;;45.45;28.30;;;6.70;99.90;;;;;;5018725;28;20053;-87
2023/04/10 02:56:56;;;;;;;50.15;34.67;;;6.80;99.90;;;;;;5018429;28;20050;-85
2023/04/10 02:59:22;;;;;;;45.53;29.40;;;6.70;99.90;;;;;;5035105;28;20050;-86
2023/04/10 03:01:49;;;;;;;47.78;31.08;;;6.80;99.90;;;;;;5018081;28;20053;-85
2023/04/10 03:04:15;;;;;;;51.03;33.72;;;6.80;99.90;;;;;;5017952;28;20060;-85
2023/04/10 03:06:41;;;;;;;48.78;32.63;;;6.80;99.90;;;;;;5034899;28;20140;-85
2023/04/10 03:09:09;;;;;;;44.08;29.10;;;6.70;99.90;;;;;;5034654;28;20120;-85
2023/04/10 03:11:35;;;;;;;47.30;32.55;;;7.40;99.90;;;;;;5034739;28;20059;-86
2023/04/10 03:14:01;;;;;;;51.35;34.53;;;6.80;99.90;;;;;;5035874;28;20045;-85
2023/04/10 03:16:27;;;;;;;52.72;33.92;;;6.70;99.90;;;;;;5033440;28;20139;-85
2023/04/10 03:18:52;;;;;;;48.75;32.80;;;6.80;99.90;;;;;;5034400;28;20055;-86
2023/04/10 03:21:18;;;;;;;47.08;31.17;;;6.70;99.90;;;;;;5034753;28;20049;-85
2023/04/10 03:23:45;;;;;;;50.85;33.13;;;6.80;99.90;;;;;;5017861;28;20068;-85
2023/04/10 03:26:11;;;;;;;49.70;33.13;;;6.80;99.90;;;;;;5034614;28;20045;-86
2023/04/10 03:28:36;;;;;;;51.92;35.08;;;6.80;99.90;;;;;;5034193;28;20146;-85
2023/04/10 03:31:03;;;;;;;52.35;36.72;;;6.80;99.90;;;;;;5018173;28;20045;-85
2023/04/10 03:33:29;;;;;;;53.13;34.90;;;6.80;99.90;;;;;;5001724;28;20053;-85
2023/04/10 03:35:56;;;;;;;51.92;35.53;;;6.80;99.90;;;;;;5034030;28;20054;-85
2023/04/10 03:38:22;;;;;;;51.55;35.45;;;6.80;99.90;;;;;;5034054;28;20124;-84
2023/04/10 03:40:48;;;;;;;56.08;38.85;;;6.80;99.90;;;;;;5033705;28;20176;-84
2023/04/10 03:43:13;;;;;;;53.50;38.25;;;6.80;99.90;;;;;;5001543;28;20128;-84
2023/04/10 03:45:39;;;;;;;54.75;38.28;;;6.80;99.90;;;;;;5017785;28;20154;-85
2023/04/10 03:48:05;;;;;;;53.85;40.50;;;6.80;99.90;;;;;;5033602;28;20068;-84
2023/04/10 03:50:31;;;;;;;57.35;39.38;;;6.90;99.90;;;;;;5033976;28;20053;-84
2023/04/10 03:52:56;;;;;;;59.83;42.78;;;6.90;99.90;;;;;;5033697;28;20482;-85
2023/04/10 03:55:25;;;;;;;57.55;38.15;;;6.90;99.90;;;;;;5033854;28;20041;-85
2023/04/10 03:57:51;;;;;;;59.40;39.85;;;6.90;99.90;;;;;;5033732;28;20053;-84
2023/04/10 04:00:17;;;;;;;61.13;41.72;;;7.00;99.90;;;;;;5017244;28;20108;-84
2023/04/10 04:02:42;;;;;;;58.05;39.80;;;7.00;99.90;;;;;;5033881;28;20448;-84
2023/04/10 04:05:09;;;;;;;60.65;42.95;;;7.00;99.90;;;;;;5016812;28;20464;-84
2023/04/10 04:07:34;;;;;;;60.72;43.17;;;7.00;99.90;;;;;;5033835;28;20057;-85
2023/04/10 04:10:01;;;;;;;63.97;46.28;;;7.00;99.90;;;;;;5017244;28;20389;-84
2023/04/10 04:12:26;;;;;;;61.13;42.28;;;7.10;99.90;;;;;;5033801;28;20061;-85
2023/04/10 04:14:52;;;;;;;63.55;44.50;;;7.00;99.90;;;;;;5033622;28;20042;-84
2023/04/10 04:17:18;;;;;;;65.22;44.38;;;7.00;99.90;;;;;;5033462;28;20045;-84
2023/04/10 04:19:44;;;;;;;64.03;44.95;;;7.10;99.90;;;;;;5033576;28;20049;-83
2023/04/10 04:22:11;;;;;;;65.65;46.45;;;7.10;99.90;;;;;;5033405;28;20382;-84
2023/04/10 04:24:37;;;;;;;64.47;42.53;;;7.10;99.90;;;;;;5033476;28;20057;-85
2023/04/10 04:27:03;;;;;;;64.15;45.90;;;7.10;99.90;;;;;;5016569;28;20049;-84
2023/04/10 04:29:29;;;;;;;61.90;41.80;;;7.10;99.90;;;;;;5033114;28;20371;-84
2023/04/10 04:31:54;;;;;;;65.35;43.88;;;7.20;99.90;;;;;;5016837;28;20051;-85
2023/04/10 04:34:20;;;;;;;64.63;45.50;;;7.20;99.90;;;;;;5016499;28;20091;-84
2023/04/10 04:36:46;;;;;;;67.30;45.72;;;7.20;99.90;;;;;;5000307;28;20046;-84
2023/04/10 04:39:12;;;;;;;62.45;41.95;;;7.10;99.90;;;;;;5016802;28;20049;-84
2023/04/10 04:41:37;;;;;;;63.47;44.92;;;7.10;99.90;;;;;;5033285;28;20053;-84
2023/04/10 04:44:04;;;;;;;65.53;44.85;;;7.00;99.90;;;;;;5033059;28;20132;-84
2023/04/10 04:46:29;;;;;;;66.68;45.22;;;7.00;99.90;;;;;;5016727;28;20049;-85
2023/04/10 04:48:55;;;;;;;65.93;43.72;;;7.00;99.90;;;;;;4984077;28;20441;-85
2023/04/10 04:51:21;;;;;;;65.00;45.53;;;7.00;99.90;;;;;;5032823;28;20045;-84
2023/04/10 04:53:47;;;;;;;58.95;39.08;;;7.00;99.90;;;;;;5016544;28;20057;-85
2023/04/10 04:56:12;;;;;;;68.78;46.10;;;7.00;99.90;;;;;;5032590;28;20132;-84
2023/04/10 04:58:38;;;;;;;64.18;43.80;;;7.10;99.90;;;;;;4983202;28;20128;-84
2023/04/10 05:01:04;;;;;;;65.78;45.03;;;7.10;99.90;;;;;;5016143;28;20078;-85
2023/04/10 05:03:30;;;;;;;64.45;43.42;;;7.10;99.90;;;;;;5016249;28;20049;-85
2023/04/10 05:05:57;;;;;;;68.32;49.00;;;7.10;99.90;;;;;;5016438;28;20052;-84
2023/04/10 05:08:23;;;;;;;63.88;42.63;;;7.10;99.90;;;;;;5016304;28;20052;-84
2023/04/10 05:10:49;;;;;;;61.20;42.75;;;7.10;99.90;;;;;;5032654;28;20046;-85
2023/04/10 05:13:16;;;;;;;61.90;41.25;;;7.20;99.90;;;;;;5032653;28;20051;-85
2023/04/10 05:15:43;;;;;;;67.95;47.78;;;7.20;99.90;;;;;;5016391;28;20054;-84
2023/04/10 05:18:09;;;;;;;61.03;39.92;;;7.20;99.90;;;;;;5032350;28;20046;-85
2023/04/10 05:20:36;;;;;;;62.75;44.38;;;7.20;99.90;;;;;;5032570;28;20049;-84
2023/04/10 05:23:02;;;;;;;64.07;44.42;;;7.20;99.90;;;;;;5015792;28;20060;-84
2023/04/10 05:25:28;;;;;;;64.57;43.50;;;7.20;99.90;;;;;;5016052;28;20041;-85
2023/04/10 05:27:54;;;;;;;66.38;45.75;;;7.20;99.90;;;;;;5032491;28;20112;-84
2023/04/10 05:30:23;;;;;;;65.05;46.00;;;7.20;99.90;;;;;;5015912;28;20111;-86
2023/04/10 05:32:49;;;;;;;65.13;44.03;;;7.20;99.90;;;;;;5032516;28;20394;-84
2023/04/10 05:35:15;;;;;;;58.33;40.38;;;7.20;99.90;;;;;;5016039;28;20041;-85
2023/04/10 05:37:40;;;;;;;65.43;43.28;;;7.30;99.90;;;;;;5032120;28;20048;-84
2023/04/10 05:40:07;;;;;;;73.90;40.38;;;7.30;99.90;;;;;;5035841;28;20045;-84
2023/04/10 05:42:33;;;;;;;64.45;44.35;;;7.30;99.90;;;;;;5036566;28;20045;-84
2023/04/10 05:44:58;;;;;;;64.25;45.83;;;7.40;99.90;;;;;;5036476;28;20057;-84
2023/04/10 05:47:24;;;;;;;64.65;43.25;;;7.40;99.90;;;;;;5036353;28;20042;-84
2023/04/10 05:49:50;;;;;;;66.70;44.47;;;7.50;99.90;;;;;;5019690;28;20103;-84
2023/04/10 05:52:16;;;;;;;65.38;47.53;;;7.50;99.90;;;;;;5035698;28;20405;-83
2023/04/10 05:54:41;;;;;;;66.70;43.53;;;7.60;99.90;;;;;;5036319;28;20076;-84
2023/04/10 05:57:07;;;;;;;64.05;41.72;;;7.60;99.90;;;;;;5035977;28;20392;-84
2023/04/10 05:59:33;;;;;;;60.22;39.33;;;7.70;99.90;;;;;;5019839;28;20056;-85
2023/04/10 06:01:59;;;;;;;61.03;40.40;;;7.80;99.90;;;;;;5003282;28;20461;-83
2023/04/10 06:04:25;;;;;;;64.82;41.83;;;7.90;99.90;;;;;;5019445;28;20405;-84
2023/04/10 06:06:50;;;;;;;58.15;39.40;;;8.00;99.90;;;;;;5019441;28;20401;-84
2023/04/10 06:09:16;;;;;;;62.38;41.38;;;8.10;99.90;;;;;;5035967;28;20128;-83
2023/04/10 06:11:42;;;;;;;54.92;36.33;;;8.30;99.90;;;;;;5019526;28;20045;-84
2023/04/10 06:14:08;;;;;;;49.03;31.38;;;8.30;99.90;;;;;;5035584;28;20126;-84
2023/04/10 06:16:33;;;;;;;50.67;32.22;;;8.50;99.90;;;;;;5035533;28;20082;-84
2023/04/10 06:18:59;;;;;;;58.05;39.35;;;8.60;99.90;;;;;;5035909;28;20072;-85
2023/04/10 06:21:25;;;;;;;60.30;40.83;;;8.60;99.90;;;;;;5035657;28;20048;-84
2023/04/10 06:23:51;;;;;;;58.90;42.03;;;8.70;99.90;;;;;;5035013;28;20091;-84
2023/04/10 06:26:17;;;;;;;55.60;38.33;;;8.80;99.90;;;;;;5019261;28;20060;-83
2023/04/10 06:28:43;;;;;;;57.80;38.72;;;9.00;99.90;;;;;;5018955;28;20549;-83
2023/04/10 06:31:09;;;;;;;48.85;30.83;;;9.20;99.90;;;;;;5019217;28;20091;-83
2023/04/10 06:33:35;;;;;;;54.03;35.50;;;9.40;99.90;;;;;;5035432;28;20174;-83
2023/04/10 06:36:02;;;;;;;51.60;35.47;;;9.50;99.90;;;;;;5018586;28;20064;-83
2023/04/10 06:38:28;;;;;;;52.55;35.90;;;9.70;99.90;;;;;;5035162;28;20473;-84
2023/04/10 06:40:54;;;;;;;51.28;35.10;;;9.90;99.90;;;;;;5019048;28;20056;-83
2023/04/10 06:43:20;;;;;;;51.35;37.60;;;9.90;99.90;;;;;;5035380;28;20056;-82
2023/04/10 06:45:48;;;;;;;48.30;30.67;;;9.90;99.90;;;;;;5035004;28;20045;-83
2023/04/10 06:48:14;;;;;;;46.97;33.83;;;10.10;99.90;;;;;;5034936;28;20048;-82
2023/04/10 06:50:40;;;;;;;44.72;33.33;;;10.20;99.90;;;;;;5034668;28;20049;-83
2023/04/10 06:53:05;;;;;;;46.67;32.78;;;10.30;99.90;;;;;;5035281;28;20060;-83
2023/04/10 06:55:31;;;;;;;44.03;31.58;;;10.40;99.90;;;;;;5034943;28;20389;-83
2023/04/10 06:57:57;;;;;;;45.08;33.47;;;10.60;99.90;;;;;;5034783;28;20053;-82
2023/04/10 07:00:23;;;;;;;45.53;33.05;;;10.60;99.90;;;;;;5018345;28;20049;-82
2023/04/10 07:02:49;;;;;;;44.80;30.58;;;10.70;99.90;;;;;;5034506;28;20561;-83
2023/04/10 07:05:15;;;;;;;42.35;30.70;;;10.80;99.90;;;;;;5034060;28;20049;-84
2023/04/10 07:07:41;;;;;;;44.67;32.08;;;10.80;99.90;;;;;;5034947;28;20057;-82
2023/04/10 07:10:10;;;;;;;41.95;31.73;;;10.80;99.90;;;;;;5035015;28;20095;-82
2023/04/10 07:12:36;;;;;;;41.83;30.05;;;10.80;99.90;;;;;;5034542;28;20057;-83
2023/04/10 07:15:02;;;;;;;42.00;31.70;;;10.80;99.90;;;;;;5034693;28;20409;-82
2023/04/10 07:17:30;;;;;;;45.25;32.65;;;10.80;99.90;;;;;;5034668;28;20052;-83
2023/04/10 07:19:56;;;;;;;40.72;31.10;;;10.80;99.90;;;;;;5018299;28;20128;-82
2023/04/10 07:22:22;;;;;;;32.70;21.63;;;10.80;99.90;;;;;;5018127;28;20085;-85
2023/04/10 07:24:48;;;;;;;41.05;30.98;;;10.80;99.90;;;;;;5018014;28;20060;-85
2023/04/10 07:27:15;;;;;;;41.13;30.02;;;10.80;99.90;;;;;;5034582;28;20080;-85
2023/04/10 07:29:41;;;;;;;40.90;29.30;;;10.80;99.90;;;;;;5018209;28;20068;-86
2023/04/10 07:32:07;;;;;;;38.85;28.38;;;10.80;99.90;;;;;;5018284;28;20057;-85
2023/04/10 07:34:36;;;;;;;38.90;27.88;;;10.90;99.90;;;;;;5033525;28;20053;-85
2023/04/10 07:37:02;;;;;;;31.98;21.23;;;10.90;99.90;;;;;;5017334;28;20176;-85
2023/04/10 07:39:28;;;;;;;30.17;19.77;;;11.00;99.10;;;;;;5033711;28;20124;-86
2023/04/10 07:41:54;;;;;;;37.63;24.35;;;11.10;99.90;;;;;;5017845;28;20049;-85
2023/04/10 07:44:19;;;;;;;38.70;27.77;;;11.20;99.90;;;;;;5034279;28;20379;-84
2023/04/10 07:46:46;;;;;;;36.58;25.65;;;11.30;99.90;;;;;;5033902;28;20099;-84
2023/04/10 07:49:12;;;;;;;24.17;15.60;;;11.30;99.60;;;;;;5034250;28;20049;-86
2023/04/10 07:51:37;;;;;;;34.30;25.83;;;11.50;98.60;;;;;;5033390;28;20063;-86
2023/04/10 07:54:03;;;;;;;34.22;25.33;;;11.60;99.10;;;;;;5034170;28;20056;-85
2023/04/10 07:56:32;;;;;;;30.25;18.38;;;11.70;99.10;;;;;;5017314;28;20049;-86
2023/04/10 07:59:02;;;;;;;34.65;24.85;;;11.90;97.40;;;;;;5034114;28;20053;-84
2023/04/10 08:01:28;;;;;;;28.17;17.20;;;12.10;97.50;;;;;;5016648;28;20042;-84
2023/04/10 08:03:55;;;;;;;33.22;23.02;;;12.30;96.50;;;;;;5033360;28;20054;-84
2023/04/10 08:06:21;;;;;;;31.33;24.00;;;12.40;95.50;;;;;;5033613;28;20103;-84
2023/04/10 08:08:47;;;;;;;30.90;23.83;;;12.40;96.00;;;;;;5033572;28;20041;-84
2023/04/10 08:11:28;;;;;;;29.88;22.15;;;12.60;96.10;;;;;;5000968;28;20041;-84
2023/04/10 08:13:55;;;;;;;30.98;22.60;;;12.70;96.10;;;;;;5033787;28;20081;-84
2023/04/10 08:16:29;;;;;;;29.80;22.42;;;13.00;96.10;;;;;;5017240;28;20123;-85
2023/04/10 08:18:56;;;;;;;29.05;23.48;;;13.20;93.20;;;;;;5033355;28;20397;-83
2023/04/10 08:21:23;;;;;;;29.52;22.55;;;13.40;93.40;;;;;;5033246;28;20120;-84
2023/04/10 08:24:05;;;;;;;27.88;20.67;;;13.60;92.40;;;;;;5033316;28;20052;-83
2023/04/10 08:26:30;;;;;;;26.30;19.23;;;13.70;91.80;;;;;;5016908;28;20480;-86
2023/04/10 08:28:58;;;;;;;28.40;22.08;;;13.70;90.80;;;;;;5016902;28;20048;-85
2023/04/10 08:31:26;;;;;;;27.13;21.00;;;13.70;91.40;;;;;;5033551;28;20128;-85
2023/04/10 08:33:52;;;;;;;27.30;20.80;;;13.70;90.80;;;;;;5033464;28;20104;-85
2023/04/10 08:36:18;;;;;;;27.90;20.23;;;13.70;91.10;;;;;;5033095;28;20087;-85
2023/04/10 08:38:45;;;;;;;28.52;22.70;;;13.80;91.20;;;;;;4999816;28;20041;-86
2023/04/10 08:41:14;;;;;;;26.85;20.50;;;14.00;91.90;;;;;;5032672;28;20045;-84
2023/04/10 08:43:42;;;;;;;25.73;18.83;;;14.10;91.50;;;;;;5007161;28;20394;-86
2023/04/10 08:46:08;;;;;;;23.63;16.10;;;14.20;88.70;;;;;;5033316;28;20124;-85
2023/04/10 08:49:04;;;;;;;28.40;20.50;;;14.30;88.00;;;;;;5016782;28;20056;-85
2023/04/10 08:51:41;;;;;;;28.80;21.10;;;14.20;88.90;;;;;;5033090;28;20080;-85
2023/04/10 08:54:13;;;;;;;29.70;20.73;;;14.10;87.00;;;;;;5016553;28;20049;-85
2023/04/10 08:56:41;;;;;;;28.30;21.85;;;14.10;87.30;;;;;;5016662;28;20063;-84
2023/04/10 08:59:08;;;;;;;29.92;21.92;;;14.00;89.70;;;;;;5032969;28;20401;-86
2023/04/10 09:01:35;;;;;;;28.23;21.63;;;14.00;87.00;;;;;;5032515;28;20050;-86
2023/04/10 09:04:00;;;;;;;29.00;22.08;;;14.10;90.70;;;;;;5032363;28;20053;-86
2023/04/10 09:06:26;;;;;;;26.73;18.55;;;14.30;89.70;;;;;;5016255;28;20050;-86
2023/04/10 09:08:52;;;;;;;27.98;20.15;;;14.40;88.10;;;;;;5032655;28;20049;-84
2023/04/10 09:11:18;;;;;;;26.20;19.77;;;14.30;89.70;;;;;;4999998;28;20409;-85
2023/04/10 09:13:45;;;;;;;24.80;18.75;;;15.10;88.70;;;;;;5016725;28;20047;-86
2023/04/10 09:16:14;;;;;;;24.40;18.13;;;14.20;87.50;;;;;;5033088;28;20045;-87
2023/04/10 09:18:48;;;;;;;24.88;19.45;;;14.30;90.10;;;;;;5000015;28;20486;-86
2023/04/10 09:21:19;;;;;;;25.42;19.52;;;14.60;90.40;;;;;;5033229;28;20457;-86
2023/04/10 09:23:47;;;;;;;24.17;18.27;;;14.70;88.70;;;;;;5032804;28;20052;-86
2023/04/10 09:26:23;;;;;;;25.02;19.60;;;14.90;87.50;;;;;;5016012;28;20053;-86
2023/04/10 09:29:02;;;;;;;21.50;16.35;;;15.00;88.60;;;;;;5016360;28;20085;-86
2023/04/10 09:31:34;;;;;;;23.50;16.73;;;15.20;87.00;;;;;;5016921;28;20045;-85
2023/04/10 09:34:23;;;;;;;16.42;10.65;;;15.30;84.30;;;;;;5031945;28;20559;-83
2023/04/10 09:36:56;;;;;;;20.23;15.95;;;15.30;83.10;;;;;;5032629;28;20077;-84
2023/04/10 09:39:32;;;;;;;18.42;12.38;;;15.30;84.80;;;;;;5032684;28;20038;-84
2023/04/10 09:41:58;;;;;;;18.60;13.30;;;15.30;81.70;;;;;;5032784;28;20072;-84
2023/04/10 09:44:32;;;;;;;16.33;8.55;;;15.30;80.70;;;;;;4999715;28;20053;-82
2023/04/10 09:47:13;;;;;;;22.17;17.02;;;15.20;80.80;;;;;;5032596;28;20053;-84
2023/04/10 09:49:54;;;;;;;20.60;16.10;;;15.20;84.90;;;;;;5015977;28;20049;-84
2023/04/10 09:52:37;;;;;;;18.65;15.73;;;15.40;82.20;;;;;;5016037;28;20057;-84
2023/04/10 09:55:07;;;;;;;19.60;14.50;;;15.50;82.30;;;;;;5016456;28;20060;-84
2023/04/10 09:57:34;;;;;;;16.65;12.57;;;15.70;83.50;;;;;;5016175;28;20450;-84
2023/04/10 10:00:08;;;;;;;18.95;14.38;;;15.80;80.80;;;;;;4999527;28;20046;-86
2023/04/10 10:02:40;;;;;;;10.02;6.03;;;15.80;79.70;;;;;;5016155;28;20450;-84
2023/04/10 10:05:06;;;;;;;16.42;10.80;;;15.70;76.60;;;;;;5031825;28;20057;-84
2023/04/10 10:07:32;;;;;;;17.00;12.02;;;15.70;77.30;;;;;;5015913;28;20092;-84
2023/04/10 10:10:01;;;;;;;16.58;11.98;;;15.70;79.00;;;;;;5032236;28;20547;-85
2023/04/10 10:12:34;;;;;;;15.07;11.65;;;15.70;83.10;;;;;;5016576;28;20369;-85
2023/04/10 10:15:13;;;;;;;13.20;11.05;;;15.90;76.80;;;;;;5016027;28;20045;-84
2023/04/10 10:17:46;;;;;;;14.25;9.20;;;16.00;77.20;;;;;;5015650;28;20041;-86
2023/04/10 10:20:15;;;;;;;10.73;6.72;;;16.20;73.60;;;;;;5015769;28;20068;-86
2023/04/10 10:22:41;;;;;;;12.82;8.27;;;16.30;70.40;;;;;;5033159;28;20126;-86
2023/04/10 10:25:08;;;;;;;13.50;9.85;;;16.30;73.10;;;;;;5018180;28;20053;-85
2023/04/10 10:27:37;;;;;;;12.38;8.98;;;16.40;71.50;;;;;;5036173;28;20049;-86
2023/04/10 10:30:05;;;;;;;11.50;7.85;;;16.50;73.20;;;;;;5035901;28;20102;-86
2023/04/10 10:32:33;;;;;;;12.02;7.80;;;16.60;69.80;;;;;;5019762;28;20068;-85
2023/04/10 10:35:01;;;;;;;11.50;8.18;;;16.50;68.80;;;;;;5003139;28;20450;-85
2023/04/10 10:37:29;;;;;;;11.75;8.48;;;16.50;68.30;;;;;;5018927;28;20041;-82
2023/04/10 10:39:59;;;;;;;12.32;8.88;;;16.50;68.70;;;;;;5035385;28;20054;-85
2023/04/10 10:42:43;;;;;;;12.05;8.88;;;16.50;71.10;;;;;;5018937;28;20556;-85
2023/04/10 10:45:16;;;;;;;12.38;9.40;;;16.50;69.50;;;;;;5035661;28;20049;-84
2023/04/10 10:47:50;;;;;;;11.98;8.80;;;16.60;73.00;;;;;;5035433;28;20084;-86
2023/04/10 10:50:16;;;;;;;11.55;8.73;;;16.70;72.80;;;;;;5035522;28;20049;-85
2023/04/10 10:52:51;;;;;;;12.07;8.73;;;16.90;72.10;;;;;;5034821;28;20108;-85
2023/04/10 10:55:23;;;;;;;11.13;8.63;;;16.90;71.50;;;;;;5036670;28;20053;-85
2023/04/10 10:58:01;;;;;;;;;;;16.90;69.50;;;;;;5037720;28;20041;-82
2023/04/10 11:00:49;;;;;;;10.43;7.68;;;16.90;67.60;;;;;;5035600;28;20357;-84
2023/04/10 11:03:15;;;;;;;13.50;8.30;;;16.80;67.90;;;;;;5035527;28;20057;-83
2023/04/10 11:05:57;;;;;;;10.20;7.63;;;16.70;68.30;;;;;;5035644;28;20053;-84
2023/04/10 11:08:32;;;;;;;;;;;16.70;68.70;;;;;;5019646;28;20053;-85
2023/04/10 11:11:04;;;;;;;11.40;7.10;;;16.70;68.30;;;;;;5035302;28;20020;-84
2023/04/10 11:13:31;;;;;;;10.77;6.78;;;16.80;70.80;;;;;;5035482;28;20053;-85
2023/04/10 11:15:58;;;;;;;9.63;6.90;;;16.90;69.30;;;;;;5035208;28;20095;-85
2023/04/10 11:19:03;;;;;;;9.55;6.32;;;17.00;72.00;;;;;;5018609;28;20072;-84
2023/04/10 11:21:30;;;;;;;9.77;5.80;;;17.10;66.80;;;;;;4979502;28;21147;-84
2023/04/10 11:23:59;;;;;;;10.77;6.97;;;17.10;67.40;;;;;;5035120;28;20045;-83
2023/04/10 11:29:14;;;;;;;9.18;5.78;;;16.80;66.30;;;;;;5035003;28;20057;-84
2023/04/10 11:31:41;;;;;;;9.30;5.88;;;16.80;68.30;;;;;;5018576;28;20374;-84
2023/04/10 11:34:09;;;;;;;10.57;4.82;;;16.80;68.40;;;;;;5018203;28;20452;-84
2023/04/10 11:36:38;;;;;;;8.23;5.45;;;16.80;66.40;;;;;;5033117;28;20463;-84
2023/04/10 11:39:07;;;;;;;8.50;5.78;;;16.80;66.10;;;;;;5034202;28;20075;-84
2023/04/10 11:41:52;;;;;;;7.38;5.13;;;16.80;70.00;;;;;;5036000;28;20048;-83
2023/04/10 11:44:26;;;;;;;7.13;5.00;;;17.00;67.70;;;;;;5034838;28;20042;-84
2023/04/10 11:46:52;;;;;;;7.50;4.80;;;17.00;68.90;;;;;;5034551;28;20063;-84
2023/04/10 11:49:24;;;;;;;7.93;4.60;;;17.00;66.90;;;;;;5033825;28;20113;-84
2023/04/10 11:51:51;;;;;;;7.05;4.75;;;17.10;66.20;;;;;;5034958;28;20049;-85
2023/04/10 11:54:20;;;;;;;6.72;4.00;;;17.10;67.10;;;;;;5037304;28;20076;-85
2023/04/10 11:57:00;;;;;;;6.72;4.40;;;17.00;63.80;;;;;;5036478;28;20052;-85
2023/04/10 11:59:27;;;;;;;7.38;4.18;;;17.00;64.20;;;;;;5017980;28;20057;-84
2023/04/10 12:02:08;;;;;;;6.85;4.15;;;17.00;65.40;;;;;;5034210;28;20072;-84
2023/04/10 12:04:34;;;;;;;6.93;3.70;;;17.00;66.80;;;;;;5035015;28;20057;-86
2023/04/10 12:07:00;;;;;;;6.22;3.80;;;17.10;66.70;;;;;;5035413;28;20107;-84
2023/04/10 12:09:26;;;;;;;6.72;4.05;;;17.20;62.90;;;;;;5034754;28;20053;-84
2023/04/10 12:11:54;;;;;;;6.32;3.80;;;17.30;64.10;;;;;;5034086;28;20111;-83
2023/04/10 12:14:22;;;;;;;5.63;3.05;;;17.40;64.20;;;;;;5034444;28;20457;-83
2023/04/10 12:16:51;;;;;;;6.38;3.80;;;17.40;61.60;;;;;;5017609;28;20133;-84
2023/04/10 12:19:19;;;;;;;7.68;4.00;;;17.40;63.10;;;;;;5033769;28;20049;-85
2023/04/10 12:21:45;;;;;;;5.95;3.42;;;17.50;64.50;;;;;;5033851;28;20049;-84
2023/04/10 12:24:12;;;;;;;7.10;3.67;;;17.70;64.30;;;;;;5035408;28;20049;-85
2023/04/10 12:26:46;;;;;;;6.88;3.85;;;17.80;63.80;;;;;;5035073;28;20378;-84
2023/04/10 12:29:11;;;;;;;7.75;3.53;;;17.80;63.60;;;;;;5019456;28;20054;-84
2023/04/10 12:31:37;;;;;;;7.28;3.55;;;17.90;63.20;;;;;;5033548;28;20103;-84
2023/04/10 12:34:05;;;;;;;7.60;4.15;;;18.00;63.00;;;;;;5001067;28;20438;-84
2023/04/10 12:36:33;;;;;;;6.85;3.97;;;18.00;65.90;;;;;;5033357;28;20064;-84
2023/04/10 12:39:02;;;;;;;10.38;4.18;;;18.10;64.40;;;;;;5033638;28;20061;-83
2023/04/10 12:41:31;;;;;;;7.72;3.80;;;18.30;63.90;;;;;;5033473;28;20057;-83
2023/04/10 12:44:10;;;;;;;7.40;4.40;;;18.40;62.60;;;;;;5033597;28;20072;-82
2023/04/10 12:46:37;;;;;;;8.13;4.05;;;18.60;63.80;;;;;;5017302;28;20057;-84